sensor_id;sensor_type;location;lat;lon;timestamp;temperature;humidity
24664;DHT22;12791;50.992;13.788;2023-03-17T00:02:21;4.60;65.00
24664;DHT22;12791;50.992;13.788;2023-03-17T00:04:48;4.60;65.00
24664;DHT22;12791;50.992;13.788;2023-03-17T00:07:17;4.60;65.00
24664;DHT22;12791;50.992;13.788;2023-03-17T00:09:43;4.70;65.00
24664;DHT22;12791;50.992;13.788;2023-03-17T00:12:11;4.70;64.00
24664;DHT22;12791;50.992;13.788;2023-03-17T00:14:38;4.80;64.10
24664;DHT22;12791;50.992;13.788;2023-03-17T00:17:05;4.60;63.70
24664;DHT22;12791;50.992;13.788;2023-03-17T00:19:34;4.80;63.00
24664;DHT22;12791;50.992;13.788;2023-03-17T00:22:02;4.90;62.90
24664;DHT22;12791;50.992;13.788;2023-03-17T00:24:31;4.70;62.00
24664;DHT22;12791;50.992;13.788;2023-03-17T00:26:58;4.70;62.20
24664;DHT22;12791;50.992;13.788;2023-03-17T00:29:24;4.80;62.70
24664;DHT22;12791;50.992;13.788;2023-03-17T00:31:51;4.80;62.60
24664;DHT22;12791;50.992;13.788;2023-03-17T00:34:18;4.60;62.10
24664;DHT22;12791;50.992;13.788;2023-03-17T00:36:47;4.70;62.00
24664;DHT22;12791;50.992;13.788;2023-03-17T00:39:15;4.70;62.30
24664;DHT22;12791;50.992;13.788;2023-03-17T00:41:42;4.70;62.40
24664;DHT22;12791;50.992;13.788;2023-03-17T00:44:09;4.70;62.30
24664;DHT22;12791;50.992;13.788;2023-03-17T00:46:36;4.50;61.60
24664;DHT22;12791;50.992;13.788;2023-03-17T00:49:11;4.70;61.60
24664;DHT22;12791;50.992;13.788;2023-03-17T00:51:40;4.90;61.90
24664;DHT22;12791;50.992;13.788;2023-03-17T00:54:09;4.70;61.50
24664;DHT22;12791;50.992;13.788;2023-03-17T00:56:36;4.70;61.90
24664;DHT22;12791;50.992;13.788;2023-03-17T00:59:04;4.60;63.10
24664;DHT22;12791;50.992;13.788;2023-03-17T01:01:39;4.70;62.40
24664;DHT22;12791;50.992;13.788;2023-03-17T01:04:08;4.60;61.80
24664;DHT22;12791;50.992;13.788;2023-03-17T01:06:35;4.60;61.70
24664;DHT22;12791;50.992;13.788;2023-03-17T01:09:02;4.60;62.10
24664;DHT22;12791;50.992;13.788;2023-03-17T01:11:30;4.60;61.90
24664;DHT22;12791;50.992;13.788;2023-03-17T01:13:57;4.80;61.80
24664;DHT22;12791;50.992;13.788;2023-03-17T01:16:24;4.70;60.90
24664;DHT22;12791;50.992;13.788;2023-03-17T01:18:51;4.90;59.90
24664;DHT22;12791;50.992;13.788;2023-03-17T01:21:17;4.70;59.80
24664;DHT22;12791;50.992;13.788;2023-03-17T01:23:44;4.80;59.50
24664;DHT22;12791;50.992;13.788;2023-03-17T01:26:11;4.90;59.10
24664;DHT22;12791;50.992;13.788;2023-03-17T01:28:39;4.80;59.00
24664;DHT22;12791;50.992;13.788;2023-03-17T01:31:06;4.70;58.90
24664;DHT22;12791;50.992;13.788;2023-03-17T01:33:33;4.90;58.80
24664;DHT22;12791;50.992;13.788;2023-03-17T01:36:00;4.80;58.60
24664;DHT22;12791;50.992;13.788;2023-03-17T01:38:27;4.80;58.30
24664;DHT22;12791;50.992;13.788;2023-03-17T01:40:54;4.70;57.70
24664;DHT22;12791;50.992;13.788;2023-03-17T01:43:23;4.70;57.50
24664;DHT22;12791;50.992;13.788;2023-03-17T01:46:26;4.80;57.50
24664;DHT22;12791;50.992;13.788;2023-03-17T01:48:59;5.00;58.00
24664;DHT22;12791;50.992;13.788;2023-03-17T01:51:31;4.80;57.10
24664;DHT22;12791;50.992;13.788;2023-03-17T01:53:59;4.80;57.50
24664;DHT22;12791;50.992;13.788;2023-03-17T01:56:26;4.70;57.40
24664;DHT22;12791;50.992;13.788;2023-03-17T01:58:55;4.70;57.40
24664;DHT22;12791;50.992;13.788;2023-03-17T02:01:26;4.70;57.60
24664;DHT22;12791;50.992;13.788;2023-03-17T02:03:54;4.80;57.50
24664;DHT22;12791;50.992;13.788;2023-03-17T02:06:21;4.80;57.90
24664;DHT22;12791;50.992;13.788;2023-03-17T02:08:48;4.80;58.00
24664;DHT22;12791;50.992;13.788;2023-03-17T02:11:16;4.70;57.70
24664;DHT22;12791;50.992;13.788;2023-03-17T02:13:43;4.80;57.20
24664;DHT22;12791;50.992;13.788;2023-03-17T02:16:13;4.50;56.80
24664;DHT22;12791;50.992;13.788;2023-03-17T02:18:43;4.80;57.10
24664;DHT22;12791;50.992;13.788;2023-03-17T02:21:37;4.80;57.10
24664;DHT22;12791;50.992;13.788;2023-03-17T02:24:08;4.80;57.10
24664;DHT22;12791;50.992;13.788;2023-03-17T02:26:35;4.70;57.30
24664;DHT22;12791;50.992;13.788;2023-03-17T02:29:03;4.90;56.40
24664;DHT22;12791;50.992;13.788;2023-03-17T02:31:31;4.80;56.30
24664;DHT22;12791;50.992;13.788;2023-03-17T02:33:59;4.90;56.50
24664;DHT22;12791;50.992;13.788;2023-03-17T02:36:26;4.80;56.00
24664;DHT22;12791;50.992;13.788;2023-03-17T02:38:55;4.70;56.30
24664;DHT22;12791;50.992;13.788;2023-03-17T02:41:22;4.80;56.20
24664;DHT22;12791;50.992;13.788;2023-03-17T02:43:49;4.70;55.80
24664;DHT22;12791;50.992;13.788;2023-03-17T02:46:16;4.80;55.70
24664;DHT22;12791;50.992;13.788;2023-03-17T02:48:43;4.80;55.30
24664;DHT22;12791;50.992;13.788;2023-03-17T02:51:10;4.90;54.80
24664;DHT22;12791;50.992;13.788;2023-03-17T02:53:37;4.80;54.80
24664;DHT22;12791;50.992;13.788;2023-03-17T02:56:06;4.90;54.90
24664;DHT22;12791;50.992;13.788;2023-03-17T02:58:33;4.80;54.80
24664;DHT22;12791;50.992;13.788;2023-03-17T03:01:00;4.80;55.20
24664;DHT22;12791;50.992;13.788;2023-03-17T03:03:26;4.80;54.80
24664;DHT22;12791;50.992;13.788;2023-03-17T03:05:53;4.80;54.70
24664;DHT22;12791;50.992;13.788;2023-03-17T03:08:19;5.00;54.90
24664;DHT22;12791;50.992;13.788;2023-03-17T03:10:46;4.80;54.70
24664;DHT22;12791;50.992;13.788;2023-03-17T03:13:14;5.00;54.60
24664;DHT22;12791;50.992;13.788;2023-03-17T03:15:41;4.70;54.60
24664;DHT22;12791;50.992;13.788;2023-03-17T03:18:08;4.80;54.20
24664;DHT22;12791;50.992;13.788;2023-03-17T03:20:35;4.90;54.30
24664;DHT22;12791;50.992;13.788;2023-03-17T03:23:01;4.90;54.20
24664;DHT22;12791;50.992;13.788;2023-03-17T03:25:28;4.80;54.20
24664;DHT22;12791;50.992;13.788;2023-03-17T03:27:54;4.70;54.60
24664;DHT22;12791;50.992;13.788;2023-03-17T03:30:22;4.80;54.70
24664;DHT22;12791;50.992;13.788;2023-03-17T03:32:49;4.80;55.30
24664;DHT22;12791;50.992;13.788;2023-03-17T03:35:16;4.70;54.60
24664;DHT22;12791;50.992;13.788;2023-03-17T03:37:42;4.90;54.80
24664;DHT22;12791;50.992;13.788;2023-03-17T03:40:10;4.90;55.40
24664;DHT22;12791;50.992;13.788;2023-03-17T03:42:37;4.60;54.60
24664;DHT22;12791;50.992;13.788;2023-03-17T03:45:04;4.80;54.70
24664;DHT22;12791;50.992;13.788;2023-03-17T03:47:32;4.90;55.00
24664;DHT22;12791;50.992;13.788;2023-03-17T03:49:59;4.70;55.00
24664;DHT22;12791;50.992;13.788;2023-03-17T03:52:25;4.70;55.20
24664;DHT22;12791;50.992;13.788;2023-03-17T03:54:52;4.70;55.20
24664;DHT22;12791;50.992;13.788;2023-03-17T03:57:19;4.80;54.70
24664;DHT22;12791;50.992;13.788;2023-03-17T03:59:45;4.70;54.60
24664;DHT22;12791;50.992;13.788;2023-03-17T04:02:12;4.70;54.90
24664;DHT22;12791;50.992;13.788;2023-03-17T04:04:40;4.80;55.10
24664;DHT22;12791;50.992;13.788;2023-03-17T04:07:07;4.80;55.20
24664;DHT22;12791;50.992;13.788;2023-03-17T04:09:34;4.90;54.80
24664;DHT22;12791;50.992;13.788;2023-03-17T04:12:01;4.60;54.70
24664;DHT22;12791;50.992;13.788;2023-03-17T04:14:28;4.70;54.60
24664;DHT22;12791;50.992;13.788;2023-03-17T04:16:55;4.80;54.70
24664;DHT22;12791;50.992;13.788;2023-03-17T04:19:21;4.60;54.50
24664;DHT22;12791;50.992;13.788;2023-03-17T04:21:49;4.70;54.60
24664;DHT22;12791;50.992;13.788;2023-03-17T04:24:16;4.70;54.60
24664;DHT22;12791;50.992;13.788;2023-03-17T04:26:43;4.80;54.80
24664;DHT22;12791;50.992;13.788;2023-03-17T04:29:09;4.70;55.10
24664;DHT22;12791;50.992;13.788;2023-03-17T04:31:40;4.70;54.60
24664;DHT22;12791;50.992;13.788;2023-03-17T04:34:08;4.90;54.70
24664;DHT22;12791;50.992;13.788;2023-03-17T04:36:36;4.70;54.60
24664;DHT22;12791;50.992;13.788;2023-03-17T04:39:04;4.90;54.80
24664;DHT22;12791;50.992;13.788;2023-03-17T04:41:31;4.80;54.70
24664;DHT22;12791;50.992;13.788;2023-03-17T04:43:58;4.70;54.60
24664;DHT22;12791;50.992;13.788;2023-03-17T04:46:24;4.70;54.60
24664;DHT22;12791;50.992;13.788;2023-03-17T04:48:52;4.70;54.60
24664;DHT22;12791;50.992;13.788;2023-03-17T04:51:18;4.90;54.70
24664;DHT22;12791;50.992;13.788;2023-03-17T04:53:45;4.50;54.40
24664;DHT22;12791;50.992;13.788;2023-03-17T04:56:13;4.60;54.50
24664;DHT22;12791;50.992;13.788;2023-03-17T04:58:40;4.70;54.60
24664;DHT22;12791;50.992;13.788;2023-03-17T05:01:07;4.70;54.60
24664;DHT22;12791;50.992;13.788;2023-03-17T05:03:34;4.60;54.50
24664;DHT22;12791;50.992;13.788;2023-03-17T05:06:01;4.60;54.50
24664;DHT22;12791;50.992;13.788;2023-03-17T05:08:28;4.80;55.10
24664;DHT22;12791;50.992;13.788;2023-03-17T05:10:55;4.50;54.30
24664;DHT22;12791;50.992;13.788;2023-03-17T05:13:24;4.60;54.60
24664;DHT22;12791;50.992;13.788;2023-03-17T05:15:53;4.70;54.80
24664;DHT22;12791;50.992;13.788;2023-03-17T05:18:21;4.60;54.60
24664;DHT22;12791;50.992;13.788;2023-03-17T05:20:49;4.50;54.40
24664;DHT22;12791;50.992;13.788;2023-03-17T05:23:15;4.60;54.70
24664;DHT22;12791;50.992;13.788;2023-03-17T05:25:42;4.50;55.00
24664;DHT22;12791;50.992;13.788;2023-03-17T05:28:09;4.60;55.10
24664;DHT22;12791;50.992;13.788;2023-03-17T05:30:37;4.50;55.20
24664;DHT22;12791;50.992;13.788;2023-03-17T05:33:04;4.50;55.10
24664;DHT22;12791;50.992;13.788;2023-03-17T05:35:31;4.40;54.90
24664;DHT22;12791;50.992;13.788;2023-03-17T05:37:57;4.50;54.70
24664;DHT22;12791;50.992;13.788;2023-03-17T05:40:24;4.50;55.20
24664;DHT22;12791;50.992;13.788;2023-03-17T05:42:51;4.40;55.00
24664;DHT22;12791;50.992;13.788;2023-03-17T05:45:17;4.60;55.20
24664;DHT22;12791;50.992;13.788;2023-03-17T05:47:46;4.60;55.50
24664;DHT22;12791;50.992;13.788;2023-03-17T05:50:12;4.40;55.50
24664;DHT22;12791;50.992;13.788;2023-03-17T05:52:39;4.40;55.40
24664;DHT22;12791;50.992;13.788;2023-03-17T05:55:06;4.70;55.90
24664;DHT22;12791;50.992;13.788;2023-03-17T05:57:33;4.50;56.00
24664;DHT22;12791;50.992;13.788;2023-03-17T06:00:00;4.30;55.80
24664;DHT22;12791;50.992;13.788;2023-03-17T06:02:27;4.50;55.60
24664;DHT22;12791;50.992;13.788;2023-03-17T06:04:55;4.50;55.70
24664;DHT22;12791;50.992;13.788;2023-03-17T06:07:21;4.40;55.60
24664;DHT22;12791;50.992;13.788;2023-03-17T06:09:48;4.50;55.50
24664;DHT22;12791;50.992;13.788;2023-03-17T06:12:15;4.50;55.30
24664;DHT22;12791;50.992;13.788;2023-03-17T06:14:42;4.50;55.40
24664;DHT22;12791;50.992;13.788;2023-03-17T06:17:08;4.60;55.50
24664;DHT22;12791;50.992;13.788;2023-03-17T06:19:36;4.70;55.50
24664;DHT22;12791;50.992;13.788;2023-03-17T06:22:05;4.40;55.50
24664;DHT22;12791;50.992;13.788;2023-03-17T06:24:31;4.60;55.80
24664;DHT22;12791;50.992;13.788;2023-03-17T06:26:58;4.60;55.70
24664;DHT22;12791;50.992;13.788;2023-03-17T06:29:25;4.60;55.90
24664;DHT22;12791;50.992;13.788;2023-03-17T06:31:52;4.80;55.60
24664;DHT22;12791;50.992;13.788;2023-03-17T06:34:21;4.80;55.70
24664;DHT22;12791;50.992;13.788;2023-03-17T06:36:48;4.60;55.30
24664;DHT22;12791;50.992;13.788;2023-03-17T06:39:16;4.90;55.60
24664;DHT22;12791;50.992;13.788;2023-03-17T06:41:43;4.70;55.90
24664;DHT22;12791;50.992;13.788;2023-03-17T06:44:09;4.90;56.00
24664;DHT22;12791;50.992;13.788;2023-03-17T06:46:36;5.00;56.00
24664;DHT22;12791;50.992;13.788;2023-03-17T06:49:03;4.80;55.20
24664;DHT22;12791;50.992;13.788;2023-03-17T06:51:30;4.90;55.20
24664;DHT22;12791;50.992;13.788;2023-03-17T06:53:57;5.00;55.20
24664;DHT22;12791;50.992;13.788;2023-03-17T06:56:25;5.20;54.70
24664;DHT22;12791;50.992;13.788;2023-03-17T06:58:52;5.30;54.90
24664;DHT22;12791;50.992;13.788;2023-03-17T07:01:19;5.20;54.70
24664;DHT22;12791;50.992;13.788;2023-03-17T07:03:46;5.30;54.20
24664;DHT22;12791;50.992;13.788;2023-03-17T07:06:13;5.40;54.20
24664;DHT22;12791;50.992;13.788;2023-03-17T07:08:39;5.50;54.40
24664;DHT22;12791;50.992;13.788;2023-03-17T07:11:06;5.50;54.60
24664;DHT22;12791;50.992;13.788;2023-03-17T07:13:35;5.60;54.40
24664;DHT22;12791;50.992;13.788;2023-03-17T07:16:03;5.60;54.00
24664;DHT22;12791;50.992;13.788;2023-03-17T07:18:31;5.80;54.10
24664;DHT22;12791;50.992;13.788;2023-03-17T07:20:58;5.70;53.70
24664;DHT22;12791;50.992;13.788;2023-03-17T07:23:24;5.90;53.40
24664;DHT22;12791;50.992;13.788;2023-03-17T07:25:51;6.20;53.50
24664;DHT22;12791;50.992;13.788;2023-03-17T07:28:18;6.10;53.10
24664;DHT22;12791;50.992;13.788;2023-03-17T07:30:48;6.10;52.50
24664;DHT22;12791;50.992;13.788;2023-03-17T07:33:16;6.20;52.50
24664;DHT22;12791;50.992;13.788;2023-03-17T07:35:45;6.30;53.10
24664;DHT22;12791;50.992;13.788;2023-03-17T07:38:13;6.50;52.60
24664;DHT22;12791;50.992;13.788;2023-03-17T07:40:39;6.60;52.30
24664;DHT22;12791;50.992;13.788;2023-03-17T07:43:06;6.60;51.30
24664;DHT22;12791;50.992;13.788;2023-03-17T07:45:33;6.70;51.00
24664;DHT22;12791;50.992;13.788;2023-03-17T07:48:01;6.70;51.20
24664;DHT22;12791;50.992;13.788;2023-03-17T07:50:29;6.70;51.40
24664;DHT22;12791;50.992;13.788;2023-03-17T07:52:56;6.70;50.80
24664;DHT22;12791;50.992;13.788;2023-03-17T07:55:23;6.70;50.50
24664;DHT22;12791;50.992;13.788;2023-03-17T07:57:50;6.60;50.50
24664;DHT22;12791;50.992;13.788;2023-03-17T08:00:18;6.70;51.00
24664;DHT22;12791;50.992;13.788;2023-03-17T08:02:45;6.50;50.90
24664;DHT22;12791;50.992;13.788;2023-03-17T08:05:13;6.50;51.60
24664;DHT22;12791;50.992;13.788;2023-03-17T08:07:39;6.50;51.60
24664;DHT22;12791;50.992;13.788;2023-03-17T08:10:07;6.40;51.40
24664;DHT22;12791;50.992;13.788;2023-03-17T08:12:34;6.50;51.00
24664;DHT22;12791;50.992;13.788;2023-03-17T08:15:00;6.10;50.50
24664;DHT22;12791;50.992;13.788;2023-03-17T08:17:27;6.60;50.50
24664;DHT22;12791;50.992;13.788;2023-03-17T08:19:54;6.50;50.80
24664;DHT22;12791;50.992;13.788;2023-03-17T08:22:22;6.60;50.50
24664;DHT22;12791;50.992;13.788;2023-03-17T08:24:49;6.70;50.60
24664;DHT22;12791;50.992;13.788;2023-03-17T08:27:17;6.80;50.60
24664;DHT22;12791;50.992;13.788;2023-03-17T08:29:45;6.90;49.70
24664;DHT22;12791;50.992;13.788;2023-03-17T08:32:12;7.00;48.80
24664;DHT22;12791;50.992;13.788;2023-03-17T08:34:39;7.00;48.90
24664;DHT22;12791;50.992;13.788;2023-03-17T08:37:09;7.20;48.50
24664;DHT22;12791;50.992;13.788;2023-03-17T08:39:37;7.20;48.50
24664;DHT22;12791;50.992;13.788;2023-03-17T08:42:04;7.40;48.70
24664;DHT22;12791;50.992;13.788;2023-03-17T08:44:31;7.60;48.10
24664;DHT22;12791;50.992;13.788;2023-03-17T08:46:58;7.40;48.30
24664;DHT22;12791;50.992;13.788;2023-03-17T08:49:25;7.50;48.20
24664;DHT22;12791;50.992;13.788;2023-03-17T08:51:52;7.50;48.70
24664;DHT22;12791;50.992;13.788;2023-03-17T08:54:18;7.60;48.90
24664;DHT22;12791;50.992;13.788;2023-03-17T08:56:46;7.40;48.40
24664;DHT22;12791;50.992;13.788;2023-03-17T08:59:13;7.80;48.50
24664;DHT22;12791;50.992;13.788;2023-03-17T09:01:40;7.80;47.60
24664;DHT22;12791;50.992;13.788;2023-03-17T09:04:08;7.70;47.70
24664;DHT22;12791;50.992;13.788;2023-03-17T09:06:35;7.70;47.70
24664;DHT22;12791;50.992;13.788;2023-03-17T09:09:02;7.90;47.20
24664;DHT22;12791;50.992;13.788;2023-03-17T09:11:29;7.90;47.20
24664;DHT22;12791;50.992;13.788;2023-03-17T09:13:58;7.90;47.50
24664;DHT22;12791;50.992;13.788;2023-03-17T09:16:25;8.00;46.70
24664;DHT22;12791;50.992;13.788;2023-03-17T09:18:53;8.10;46.80
24664;DHT22;12791;50.992;13.788;2023-03-17T09:21:20;8.10;46.70
24664;DHT22;12791;50.992;13.788;2023-03-17T09:23:46;8.20;46.40
24664;DHT22;12791;50.992;13.788;2023-03-17T09:26:13;8.30;46.70
24664;DHT22;12791;50.992;13.788;2023-03-17T09:28:40;8.40;46.00
24664;DHT22;12791;50.992;13.788;2023-03-17T09:31:09;8.40;45.80
24664;DHT22;12791;50.992;13.788;2023-03-17T09:33:36;8.50;46.60
24664;DHT22;12791;50.992;13.788;2023-03-17T09:36:03;8.40;46.20
24664;DHT22;12791;50.992;13.788;2023-03-17T09:38:31;8.60;44.40
24664;DHT22;12791;50.992;13.788;2023-03-17T09:41:02;8.60;44.30
24664;DHT22;12791;50.992;13.788;2023-03-17T09:43:38;8.80;45.40
24664;DHT22;12791;50.992;13.788;2023-03-17T09:46:22;8.60;45.90
24664;DHT22;12791;50.992;13.788;2023-03-17T09:48:58;9.10;46.40
24664;DHT22;12791;50.992;13.788;2023-03-17T09:51:25;8.90;44.30
24664;DHT22;12791;50.992;13.788;2023-03-17T09:53:57;9.00;44.20
24664;DHT22;12791;50.992;13.788;2023-03-17T09:56:26;9.10;44.70
24664;DHT22;12791;50.992;13.788;2023-03-17T09:58:56;9.10;43.90
24664;DHT22;12791;50.992;13.788;2023-03-17T10:01:25;9.10;42.30
24664;DHT22;12791;50.992;13.788;2023-03-17T10:03:52;9.30;41.80
24664;DHT22;12791;50.992;13.788;2023-03-17T10:06:31;9.20;42.70
24664;DHT22;12791;50.992;13.788;2023-03-17T10:09:05;9.30;42.30
24664;DHT22;12791;50.992;13.788;2023-03-17T10:11:38;9.30;42.30
24664;DHT22;12791;50.992;13.788;2023-03-17T10:14:07;9.30;40.80
24664;DHT22;12791;50.992;13.788;2023-03-17T10:16:41;9.30;41.50
24664;DHT22;12791;50.992;13.788;2023-03-17T10:19:14;9.30;41.50
24664;DHT22;12791;50.992;13.788;2023-03-17T10:21:48;9.30;41.20
24664;DHT22;12791;50.992;13.788;2023-03-17T10:24:17;9.40;42.00
24664;DHT22;12791;50.992;13.788;2023-03-17T10:26:47;9.40;42.40
24664;DHT22;12791;50.992;13.788;2023-03-17T10:29:17;9.40;41.00
24664;DHT22;12791;50.992;13.788;2023-03-17T10:31:47;9.40;42.60
24664;DHT22;12791;50.992;13.788;2023-03-17T10:34:17;9.50;42.90
24664;DHT22;12791;50.992;13.788;2023-03-17T10:36:48;9.50;41.40
24664;DHT22;12791;50.992;13.788;2023-03-17T10:39:17;9.60;41.60
24664;DHT22;12791;50.992;13.788;2023-03-17T10:41:52;9.60;42.00
24664;DHT22;12791;50.992;13.788;2023-03-17T10:44:22;9.80;42.40
24664;DHT22;12791;50.992;13.788;2023-03-17T10:46:55;9.70;42.40
24664;DHT22;12791;50.992;13.788;2023-03-17T10:49:22;9.80;41.90
24664;DHT22;12791;50.992;13.788;2023-03-17T10:51:52;9.80;43.40
24664;DHT22;12791;50.992;13.788;2023-03-17T10:54:22;9.80;42.70
24664;DHT22;12791;50.992;13.788;2023-03-17T10:56:57;9.80;41.50
24664;DHT22;12791;50.992;13.788;2023-03-17T10:59:28;9.90;41.90
24664;DHT22;12791;50.992;13.788;2023-03-17T11:01:58;10.10;41.30
24664;DHT22;12791;50.992;13.788;2023-03-17T11:04:28;10.00;41.50
24664;DHT22;12791;50.992;13.788;2023-03-17T11:06:56;10.10;41.20
24664;DHT22;12791;50.992;13.788;2023-03-17T11:09:24;10.00;40.80
24664;DHT22;12791;50.992;13.788;2023-03-17T11:12:01;10.20;40.80
24664;DHT22;12791;50.992;13.788;2023-03-17T11:14:29;10.30;41.00
24664;DHT22;12791;50.992;13.788;2023-03-17T11:16:59;10.30;40.50
24664;DHT22;12791;50.992;13.788;2023-03-17T11:19:34;10.40;41.10
24664;DHT22;12791;50.992;13.788;2023-03-17T11:22:07;10.50;40.40
24664;DHT22;12791;50.992;13.788;2023-03-17T11:24:41;10.40;40.50
24664;DHT22;12791;50.992;13.788;2023-03-17T11:27:16;10.60;41.00
24664;DHT22;12791;50.992;13.788;2023-03-17T11:30:10;10.70;41.00
24664;DHT22;12791;50.992;13.788;2023-03-17T11:32:43;10.70;40.80
24664;DHT22;12791;50.992;13.788;2023-03-17T11:35:23;10.80;40.30
24664;DHT22;12791;50.992;13.788;2023-03-17T11:38:07;10.60;40.00
24664;DHT22;12791;50.992;13.788;2023-03-17T11:40:41;10.90;40.60
24664;DHT22;12791;50.992;13.788;2023-03-17T11:43:22;11.00;41.30
24664;DHT22;12791;50.992;13.788;2023-03-17T11:45:52;11.00;41.00
24664;DHT22;12791;50.992;13.788;2023-03-17T11:48:30;11.10;40.90
24664;DHT22;12791;50.992;13.788;2023-03-17T11:51:11;11.10;41.30
24664;DHT22;12791;50.992;13.788;2023-03-17T11:53:50;11.20;41.40
24664;DHT22;12791;50.992;13.788;2023-03-17T11:56:21;11.20;41.70
24664;DHT22;12791;50.992;13.788;2023-03-17T11:58:54;11.30;39.90
24664;DHT22;12791;50.992;13.788;2023-03-17T12:01:22;11.30;40.20
24664;DHT22;12791;50.992;13.788;2023-03-17T12:04:00;11.30;39.20
24664;DHT22;12791;50.992;13.788;2023-03-17T12:06:30;11.30;40.40
24664;DHT22;12791;50.992;13.788;2023-03-17T12:09:00;11.30;38.70
24664;DHT22;12791;50.992;13.788;2023-03-17T12:11:30;11.30;39.20
24664;DHT22;12791;50.992;13.788;2023-03-17T12:14:01;11.30;38.90
24664;DHT22;12791;50.992;13.788;2023-03-17T12:16:32;11.30;39.30
24664;DHT22;12791;50.992;13.788;2023-03-17T12:19:09;11.30;39.30
24664;DHT22;12791;50.992;13.788;2023-03-17T12:21:41;11.30;39.40
24664;DHT22;12791;50.992;13.788;2023-03-17T12:24:12;11.40;40.20
24664;DHT22;12791;50.992;13.788;2023-03-17T12:26:47;11.40;39.60
24664;DHT22;12791;50.992;13.788;2023-03-17T12:29:19;11.50;39.80
24664;DHT22;12791;50.992;13.788;2023-03-17T12:31:54;11.60;39.80
24664;DHT22;12791;50.992;13.788;2023-03-17T12:34:27;11.60;39.50
24664;DHT22;12791;50.992;13.788;2023-03-17T12:36:57;11.60;38.80
24664;DHT22;12791;50.992;13.788;2023-03-17T12:39:29;11.60;38.50
24664;DHT22;12791;50.992;13.788;2023-03-17T12:42:13;11.60;39.30
24664;DHT22;12791;50.992;13.788;2023-03-17T12:44:56;11.60;39.10
24664;DHT22;12791;50.992;13.788;2023-03-17T12:47:38;11.70;38.60
24664;DHT22;12791;50.992;13.788;2023-03-17T12:50:33;11.70;37.90
24664;DHT22;12791;50.992;13.788;2023-03-17T12:53:22;11.70;38.50
24664;DHT22;12791;50.992;13.788;2023-03-17T12:55:52;11.60;38.50
24664;DHT22;12791;50.992;13.788;2023-03-17T12:58:28;11.70;39.40
24664;DHT22;12791;50.992;13.788;2023-03-17T13:01:03;11.60;38.10
24664;DHT22;12791;50.992;13.788;2023-03-17T13:03:32;11.70;39.20
24664;DHT22;12791;50.992;13.788;2023-03-17T13:06:05;11.70;39.50
24664;DHT22;12791;50.992;13.788;2023-03-17T13:08:34;11.70;39.50
24664;DHT22;12791;50.992;13.788;2023-03-17T13:11:16;11.70;39.70
24664;DHT22;12791;50.992;13.788;2023-03-17T13:13:54;11.70;39.30
24664;DHT22;12791;50.992;13.788;2023-03-17T13:16:36;11.70;40.40
24664;DHT22;12791;50.992;13.788;2023-03-17T13:19:16;11.70;39.60
24664;DHT22;12791;50.992;13.788;2023-03-17T13:21:49;11.70;39.90
24664;DHT22;12791;50.992;13.788;2023-03-17T13:24:47;11.70;39.60
24664;DHT22;12791;50.992;13.788;2023-03-17T13:27:43;11.70;40.40
24664;DHT22;12791;50.992;13.788;2023-03-17T13:30:41;11.70;40.30
24664;DHT22;12791;50.992;13.788;2023-03-17T13:33:18;11.70;40.30
24664;DHT22;12791;50.992;13.788;2023-03-17T13:35:56;11.70;41.20
24664;DHT22;12791;50.992;13.788;2023-03-17T13:41:44;11.70;41.00
24664;DHT22;12791;50.992;13.788;2023-03-17T13:44:28;11.80;40.90
24664;DHT22;12791;50.992;13.788;2023-03-17T13:47:14;11.80;41.30
24664;DHT22;12791;50.992;13.788;2023-03-17T13:49:44;11.90;40.70
24664;DHT22;12791;50.992;13.788;2023-03-17T13:52:13;11.90;40.70
24664;DHT22;12791;50.992;13.788;2023-03-17T13:54:46;11.90;41.40
24664;DHT22;12791;50.992;13.788;2023-03-17T13:57:25;11.90;41.10
24664;DHT22;12791;50.992;13.788;2023-03-17T13:59:56;11.90;40.80
24664;DHT22;12791;50.992;13.788;2023-03-17T14:02:28;11.90;41.60
24664;DHT22;12791;50.992;13.788;2023-03-17T14:04:58;11.90;42.10
24664;DHT22;12791;50.992;13.788;2023-03-17T14:07:28;12.00;41.70
24664;DHT22;12791;50.992;13.788;2023-03-17T14:09:59;12.00;40.90
24664;DHT22;12791;50.992;13.788;2023-03-17T14:12:30;12.00;40.30
24664;DHT22;12791;50.992;13.788;2023-03-17T14:15:03;12.00;41.10
24664;DHT22;12791;50.992;13.788;2023-03-17T14:17:33;12.00;41.80
24664;DHT22;12791;50.992;13.788;2023-03-17T14:20:06;12.00;42.20
24664;DHT22;12791;50.992;13.788;2023-03-17T14:22:46;12.00;41.00
24664;DHT22;12791;50.992;13.788;2023-03-17T14:25:15;12.00;40.50
24664;DHT22;12791;50.992;13.788;2023-03-17T14:27:43;12.10;41.00
24664;DHT22;12791;50.992;13.788;2023-03-17T14:30:18;12.00;40.90
24664;DHT22;12791;50.992;13.788;2023-03-17T14:32:47;12.00;41.30
24664;DHT22;12791;50.992;13.788;2023-03-17T14:35:16;12.00;41.80
24664;DHT22;12791;50.992;13.788;2023-03-17T14:37:43;12.00;42.00
24664;DHT22;12791;50.992;13.788;2023-03-17T14:40:22;12.00;42.20
24664;DHT22;12791;50.992;13.788;2023-03-17T14:42:49;12.00;41.70
24664;DHT22;12791;50.992;13.788;2023-03-17T14:45:21;12.00;41.00
24664;DHT22;12791;50.992;13.788;2023-03-17T14:47:52;12.00;41.00
24664;DHT22;12791;50.992;13.788;2023-03-17T14:50:23;12.00;41.00
24664;DHT22;12791;50.992;13.788;2023-03-17T14:52:50;12.00;40.60
24664;DHT22;12791;50.992;13.788;2023-03-17T14:55:17;12.10;39.60
24664;DHT22;12791;50.992;13.788;2023-03-17T14:57:48;12.10;40.10
24664;DHT22;12791;50.992;13.788;2023-03-17T15:00:30;12.20;40.10
24664;DHT22;12791;50.992;13.788;2023-03-17T15:02:59;12.30;40.70
24664;DHT22;12791;50.992;13.788;2023-03-17T15:05:33;12.30;40.50
24664;DHT22;12791;50.992;13.788;2023-03-17T15:08:34;12.30;39.90
24664;DHT22;12791;50.992;13.788;2023-03-17T15:11:04;12.40;40.10
24664;DHT22;12791;50.992;13.788;2023-03-17T15:13:34;12.40;39.60
24664;DHT22;12791;50.992;13.788;2023-03-17T15:16:05;12.40;40.30
24664;DHT22;12791;50.992;13.788;2023-03-17T15:18:32;12.40;40.70
24664;DHT22;12791;50.992;13.788;2023-03-17T15:20:58;12.40;41.10
24664;DHT22;12791;50.992;13.788;2023-03-17T15:23:28;12.40;40.30
24664;DHT22;12791;50.992;13.788;2023-03-17T15:25:55;12.40;40.30
24664;DHT22;12791;50.992;13.788;2023-03-17T15:28:25;12.40;41.00
24664;DHT22;12791;50.992;13.788;2023-03-17T15:30:57;12.50;40.60
24664;DHT22;12791;50.992;13.788;2023-03-17T15:33:32;12.40;41.20
24664;DHT22;12791;50.992;13.788;2023-03-17T15:36:00;12.40;41.20
24664;DHT22;12791;50.992;13.788;2023-03-17T15:38:26;12.30;41.30
24664;DHT22;12791;50.992;13.788;2023-03-17T15:40:53;12.20;41.80
24664;DHT22;12791;50.992;13.788;2023-03-17T15:43:20;12.20;41.90
24664;DHT22;12791;50.992;13.788;2023-03-17T15:45:52;12.10;41.80
24664;DHT22;12791;50.992;13.788;2023-03-17T15:48:22;12.10;42.30